sensor_id;sensor_type;location;lat;lon;timestamp;temperature;humidity
15656;DHT22;7928;43.614;1.456;2023-10-31T00:00:22;11.10;99.90
15656;DHT22;7928;43.614;1.456;2023-10-31T00:02:51;11.00;99.90
15656;DHT22;7928;43.614;1.456;2023-10-31T00:05:18;10.90;99.90
15656;DHT22;7928;43.614;1.456;2023-10-31T00:07:44;10.90;99.90
15656;DHT22;7928;43.614;1.456;2023-10-31T00:10:11;10.80;99.90
15656;DHT22;7928;43.614;1.456;2023-10-31T00:12:39;10.80;99.90
15656;DHT22;7928;43.614;1.456;2023-10-31T00:15:06;10.80;99.90
15656;DHT22;7928;43.614;1.456;2023-10-31T00:17:33;10.80;99.90
15656;DHT22;7928;43.614;1.456;2023-10-31T00:20:01;10.90;99.90
15656;DHT22;7928;43.614;1.456;2023-10-31T00:22:28;10.90;99.90
15656;DHT22;7928;43.614;1.456;2023-10-31T00:24:55;11.00;99.90
15656;DHT22;7928;43.614;1.456;2023-10-31T00:27:22;11.00;99.90
15656;DHT22;7928;43.614;1.456;2023-10-31T00:29:49;11.10;99.90
15656;DHT22;7928;43.614;1.456;2023-10-31T00:32:16;11.10;99.90
15656;DHT22;7928;43.614;1.456;2023-10-31T00:34:43;11.10;99.90
15656;DHT22;7928;43.614;1.456;2023-10-31T00:37:11;11.20;99.90
15656;DHT22;7928;43.614;1.456;2023-10-31T00:39:38;11.20;99.90
15656;DHT22;7928;43.614;1.456;2023-10-31T00:42:06;11.20;99.90
15656;DHT22;7928;43.614;1.456;2023-10-31T00:44:33;11.20;99.90
15656;DHT22;7928;43.614;1.456;2023-10-31T00:47:00;11.20;99.90
15656;DHT22;7928;43.614;1.456;2023-10-31T00:49:27;11.30;99.90
15656;DHT22;7928;43.614;1.456;2023-10-31T00:51:54;11.30;99.90
15656;DHT22;7928;43.614;1.456;2023-10-31T00:54:22;11.20;99.90
15656;DHT22;7928;43.614;1.456;2023-10-31T00:56:49;11.20;99.90
15656;DHT22;7928;43.614;1.456;2023-10-31T00:59:16;11.20;99.90
15656;DHT22;7928;43.614;1.456;2023-10-31T01:01:43;11.30;99.90
15656;DHT22;7928;43.614;1.456;2023-10-31T01:04:10;11.30;99.90
15656;DHT22;7928;43.614;1.456;2023-10-31T01:06:40;11.30;99.90
15656;DHT22;7928;43.614;1.456;2023-10-31T01:09:07;11.20;99.90
15656;DHT22;7928;43.614;1.456;2023-10-31T01:11:36;11.20;99.90
15656;DHT22;7928;43.614;1.456;2023-10-31T01:14:03;11.20;99.90
15656;DHT22;7928;43.614;1.456;2023-10-31T01:16:30;11.20;99.90
15656;DHT22;7928;43.614;1.456;2023-10-31T01:18:57;11.20;99.90
15656;DHT22;7928;43.614;1.456;2023-10-31T01:21:24;11.20;99.90
15656;DHT22;7928;43.614;1.456;2023-10-31T01:23:51;11.20;99.90
15656;DHT22;7928;43.614;1.456;2023-10-31T01:26:18;11.20;99.90
15656;DHT22;7928;43.614;1.456;2023-10-31T01:28:46;11.20;99.90
15656;DHT22;7928;43.614;1.456;2023-10-31T01:31:13;11.20;99.90
15656;DHT22;7928;43.614;1.456;2023-10-31T01:33:40;11.20;99.90
15656;DHT22;7928;43.614;1.456;2023-10-31T01:36:07;11.10;99.90
15656;DHT22;7928;43.614;1.456;2023-10-31T01:38:36;11.10;99.90
15656;DHT22;7928;43.614;1.456;2023-10-31T01:41:03;11.20;99.90
15656;DHT22;7928;43.614;1.456;2023-10-31T01:43:31;11.10;99.90
15656;DHT22;7928;43.614;1.456;2023-10-31T01:45:59;11.10;99.90
15656;DHT22;7928;43.614;1.456;2023-10-31T01:48:29;11.10;99.90
15656;DHT22;7928;43.614;1.456;2023-10-31T01:50:57;11.10;99.90
15656;DHT22;7928;43.614;1.456;2023-10-31T01:53:25;11.10;99.90
15656;DHT22;7928;43.614;1.456;2023-10-31T01:55:52;11.10;99.90
15656;DHT22;7928;43.614;1.456;2023-10-31T01:58:25;11.10;99.90
15656;DHT22;7928;43.614;1.456;2023-10-31T02:00:55;11.10;99.90
15656;DHT22;7928;43.614;1.456;2023-10-31T02:03:24;11.20;99.90
15656;DHT22;7928;43.614;1.456;2023-10-31T02:05:51;11.20;99.90
15656;DHT22;7928;43.614;1.456;2023-10-31T02:08:18;11.20;99.90
15656;DHT22;7928;43.614;1.456;2023-10-31T02:10:45;11.20;99.90
15656;DHT22;7928;43.614;1.456;2023-10-31T02:13:12;11.20;99.90
15656;DHT22;7928;43.614;1.456;2023-10-31T02:15:39;11.30;99.90
15656;DHT22;7928;43.614;1.456;2023-10-31T02:18:07;11.20;99.90
15656;DHT22;7928;43.614;1.456;2023-10-31T02:20:36;11.30;99.90
15656;DHT22;7928;43.614;1.456;2023-10-31T02:23:04;11.30;99.90
15656;DHT22;7928;43.614;1.456;2023-10-31T02:25:31;11.30;99.90
15656;DHT22;7928;43.614;1.456;2023-10-31T02:27:58;11.30;99.90
15656;DHT22;7928;43.614;1.456;2023-10-31T02:30:26;11.30;99.90
15656;DHT22;7928;43.614;1.456;2023-10-31T02:32:53;11.20;99.90
15656;DHT22;7928;43.614;1.456;2023-10-31T02:35:20;11.20;99.90
15656;DHT22;7928;43.614;1.456;2023-10-31T02:37:48;11.20;99.90
15656;DHT22;7928;43.614;1.456;2023-10-31T02:40:16;11.10;99.90
15656;DHT22;7928;43.614;1.456;2023-10-31T02:42:43;11.20;99.90
15656;DHT22;7928;43.614;1.456;2023-10-31T02:45:11;11.10;99.90
15656;DHT22;7928;43.614;1.456;2023-10-31T02:47:38;11.20;99.90
15656;DHT22;7928;43.614;1.456;2023-10-31T02:50:06;11.20;99.90
15656;DHT22;7928;43.614;1.456;2023-10-31T02:52:33;11.20;99.90
15656;DHT22;7928;43.614;1.456;2023-10-31T02:55:00;11.20;99.90
15656;DHT22;7928;43.614;1.456;2023-10-31T02:57:28;11.20;99.90
15656;DHT22;7928;43.614;1.456;2023-10-31T02:59:55;11.20;99.90
15656;DHT22;7928;43.614;1.456;2023-10-31T03:02:22;11.30;99.90
15656;DHT22;7928;43.614;1.456;2023-10-31T03:04:49;11.30;99.90
15656;DHT22;7928;43.614;1.456;2023-10-31T03:07:16;11.20;99.90
15656;DHT22;7928;43.614;1.456;2023-10-31T03:09:43;11.30;99.90
15656;DHT22;7928;43.614;1.456;2023-10-31T03:12:10;11.20;99.90
15656;DHT22;7928;43.614;1.456;2023-10-31T03:14:38;11.20;99.90
15656;DHT22;7928;43.614;1.456;2023-10-31T03:17:05;11.20;99.90
15656;DHT22;7928;43.614;1.456;2023-10-31T03:19:32;11.10;99.90
15656;DHT22;7928;43.614;1.456;2023-10-31T03:21:59;11.10;99.90
15656;DHT22;7928;43.614;1.456;2023-10-31T03:24:26;11.10;99.90
15656;DHT22;7928;43.614;1.456;2023-10-31T03:26:52;11.00;99.90
15656;DHT22;7928;43.614;1.456;2023-10-31T03:29:20;11.00;99.90
15656;DHT22;7928;43.614;1.456;2023-10-31T03:31:48;11.00;99.90
15656;DHT22;7928;43.614;1.456;2023-10-31T03:34:15;11.00;99.90
15656;DHT22;7928;43.614;1.456;2023-10-31T03:36:42;10.90;99.90
15656;DHT22;7928;43.614;1.456;2023-10-31T03:39:09;10.90;99.90
15656;DHT22;7928;43.614;1.456;2023-10-31T03:41:36;11.00;99.90
15656;DHT22;7928;43.614;1.456;2023-10-31T03:44:03;11.00;99.90
15656;DHT22;7928;43.614;1.456;2023-10-31T03:46:30;11.00;99.90
15656;DHT22;7928;43.614;1.456;2023-10-31T03:48:58;10.90;99.90
15656;DHT22;7928;43.614;1.456;2023-10-31T03:51:25;10.90;99.90
15656;DHT22;7928;43.614;1.456;2023-10-31T03:53:52;10.90;99.90
15656;DHT22;7928;43.614;1.456;2023-10-31T03:56:19;10.90;99.90
15656;DHT22;7928;43.614;1.456;2023-10-31T03:58:46;10.80;99.90
15656;DHT22;7928;43.614;1.456;2023-10-31T04:01:13;10.80;99.90
15656;DHT22;7928;43.614;1.456;2023-10-31T04:03:40;10.80;99.90
15656;DHT22;7928;43.614;1.456;2023-10-31T04:06:08;10.80;99.90
15656;DHT22;7928;43.614;1.456;2023-10-31T04:08:35;10.70;99.90
15656;DHT22;7928;43.614;1.456;2023-10-31T04:11:02;10.70;99.90
15656;DHT22;7928;43.614;1.456;2023-10-31T04:13:29;10.70;99.90
15656;DHT22;7928;43.614;1.456;2023-10-31T04:15:56;10.70;99.90
15656;DHT22;7928;43.614;1.456;2023-10-31T04:18:23;10.70;99.90
15656;DHT22;7928;43.614;1.456;2023-10-31T04:20:50;10.60;99.90
15656;DHT22;7928;43.614;1.456;2023-10-31T04:23:18;10.60;99.90
15656;DHT22;7928;43.614;1.456;2023-10-31T04:25:45;10.60;99.90
15656;DHT22;7928;43.614;1.456;2023-10-31T04:28:12;10.60;99.90
15656;DHT22;7928;43.614;1.456;2023-10-31T04:30:40;10.60;99.90
15656;DHT22;7928;43.614;1.456;2023-10-31T04:33:07;10.60;99.90
15656;DHT22;7928;43.614;1.456;2023-10-31T04:35:34;10.60;99.90
15656;DHT22;7928;43.614;1.456;2023-10-31T04:38:01;10.60;99.90
15656;DHT22;7928;43.614;1.456;2023-10-31T04:40:29;10.60;99.90
15656;DHT22;7928;43.614;1.456;2023-10-31T04:42:56;10.50;99.90
15656;DHT22;7928;43.614;1.456;2023-10-31T04:45:23;10.50;99.90
15656;DHT22;7928;43.614;1.456;2023-10-31T04:47:50;10.60;99.90
15656;DHT22;7928;43.614;1.456;2023-10-31T04:50:17;10.60;99.90
15656;DHT22;7928;43.614;1.456;2023-10-31T04:52:44;10.60;99.90
15656;DHT22;7928;43.614;1.456;2023-10-31T04:55:11;10.60;99.90
15656;DHT22;7928;43.614;1.456;2023-10-31T04:57:39;10.60;99.90
15656;DHT22;7928;43.614;1.456;2023-10-31T05:00:07;10.60;99.90
15656;DHT22;7928;43.614;1.456;2023-10-31T05:02:34;10.50;99.90
15656;DHT22;7928;43.614;1.456;2023-10-31T05:05:01;10.50;99.90
15656;DHT22;7928;43.614;1.456;2023-10-31T05:07:28;10.50;99.90
15656;DHT22;7928;43.614;1.456;2023-10-31T05:09:56;10.50;99.90
15656;DHT22;7928;43.614;1.456;2023-10-31T05:12:22;10.50;99.90
15656;DHT22;7928;43.614;1.456;2023-10-31T05:14:51;10.50;99.90
15656;DHT22;7928;43.614;1.456;2023-10-31T05:17:18;10.40;99.90
15656;DHT22;7928;43.614;1.456;2023-10-31T05:19:45;10.40;99.90
15656;DHT22;7928;43.614;1.456;2023-10-31T05:22:12;10.40;99.90
15656;DHT22;7928;43.614;1.456;2023-10-31T05:24:38;10.40;99.90
15656;DHT22;7928;43.614;1.456;2023-10-31T05:27:05;10.40;99.90
15656;DHT22;7928;43.614;1.456;2023-10-31T05:29:34;10.30;99.90
15656;DHT22;7928;43.614;1.456;2023-10-31T05:32:04;10.30;99.90
15656;DHT22;7928;43.614;1.456;2023-10-31T05:34:31;10.30;99.90
15656;DHT22;7928;43.614;1.456;2023-10-31T05:36:58;10.30;99.90
15656;DHT22;7928;43.614;1.456;2023-10-31T05:39:25;10.30;99.90
15656;DHT22;7928;43.614;1.456;2023-10-31T05:41:52;10.30;99.90
15656;DHT22;7928;43.614;1.456;2023-10-31T05:44:19;10.30;99.90
15656;DHT22;7928;43.614;1.456;2023-10-31T05:46:46;10.30;99.90
15656;DHT22;7928;43.614;1.456;2023-10-31T05:49:14;10.40;99.90
15656;DHT22;7928;43.614;1.456;2023-10-31T05:51:41;10.40;99.90
15656;DHT22;7928;43.614;1.456;2023-10-31T05:54:09;10.40;99.90
15656;DHT22;7928;43.614;1.456;2023-10-31T05:56:36;10.40;99.90
15656;DHT22;7928;43.614;1.456;2023-10-31T05:59:03;10.50;99.90
15656;DHT22;7928;43.614;1.456;2023-10-31T06:01:30;10.50;99.90
15656;DHT22;7928;43.614;1.456;2023-10-31T06:03:56;10.50;99.90
15656;DHT22;7928;43.614;1.456;2023-10-31T06:06:25;10.50;99.90
15656;DHT22;7928;43.614;1.456;2023-10-31T06:08:52;10.60;99.90
15656;DHT22;7928;43.614;1.456;2023-10-31T06:11:18;10.60;99.90
15656;DHT22;7928;43.614;1.456;2023-10-31T06:13:45;10.60;99.90
15656;DHT22;7928;43.614;1.456;2023-10-31T06:16:13;10.60;99.90
15656;DHT22;7928;43.614;1.456;2023-10-31T06:18:40;10.70;99.90
15656;DHT22;7928;43.614;1.456;2023-10-31T06:21:07;10.70;99.90
15656;DHT22;7928;43.614;1.456;2023-10-31T06:23:37;10.70;99.90
15656;DHT22;7928;43.614;1.456;2023-10-31T06:26:04;10.70;99.90
15656;DHT22;7928;43.614;1.456;2023-10-31T06:28:31;10.70;99.90
15656;DHT22;7928;43.614;1.456;2023-10-31T06:31:00;10.70;99.90
15656;DHT22;7928;43.614;1.456;2023-10-31T06:33:27;10.60;99.90
15656;DHT22;7928;43.614;1.456;2023-10-31T06:35:54;10.60;99.90
15656;DHT22;7928;43.614;1.456;2023-10-31T06:38:21;10.70;99.90
15656;DHT22;7928;43.614;1.456;2023-10-31T06:40:49;10.70;99.90
15656;DHT22;7928;43.614;1.456;2023-10-31T06:43:16;10.70;99.90
15656;DHT22;7928;43.614;1.456;2023-10-31T06:45:43;10.70;99.90
15656;DHT22;7928;43.614;1.456;2023-10-31T06:48:10;10.80;99.90
15656;DHT22;7928;43.614;1.456;2023-10-31T06:50:37;10.90;99.90
15656;DHT22;7928;43.614;1.456;2023-10-31T06:53:04;10.90;99.90
15656;DHT22;7928;43.614;1.456;2023-10-31T06:55:31;11.00;99.90
15656;DHT22;7928;43.614;1.456;2023-10-31T06:57:59;11.00;99.90
15656;DHT22;7928;43.614;1.456;2023-10-31T07:00:27;11.10;99.90
15656;DHT22;7928;43.614;1.456;2023-10-31T07:02:54;11.10;99.90
15656;DHT22;7928;43.614;1.456;2023-10-31T07:05:21;11.20;99.90
15656;DHT22;7928;43.614;1.456;2023-10-31T07:07:48;11.30;99.90
15656;DHT22;7928;43.614;1.456;2023-10-31T07:10:15;11.30;99.90
15656;DHT22;7928;43.614;1.456;2023-10-31T07:12:42;11.40;99.90
15656;DHT22;7928;43.614;1.456;2023-10-31T07:15:10;11.40;99.90
15656;DHT22;7928;43.614;1.456;2023-10-31T07:17:37;11.40;99.90
15656;DHT22;7928;43.614;1.456;2023-10-31T07:20:06;11.40;99.90
15656;DHT22;7928;43.614;1.456;2023-10-31T07:22:33;11.50;99.90
15656;DHT22;7928;43.614;1.456;2023-10-31T07:25:00;11.60;99.90
15656;DHT22;7928;43.614;1.456;2023-10-31T07:27:28;11.70;99.90
15656;DHT22;7928;43.614;1.456;2023-10-31T07:29:55;11.80;99.90
15656;DHT22;7928;43.614;1.456;2023-10-31T07:32:24;11.90;99.90
15656;DHT22;7928;43.614;1.456;2023-10-31T07:34:51;11.90;99.90
15656;DHT22;7928;43.614;1.456;2023-10-31T07:37:18;11.90;99.90
15656;DHT22;7928;43.614;1.456;2023-10-31T07:39:45;11.90;99.90
15656;DHT22;7928;43.614;1.456;2023-10-31T07:42:12;11.90;99.90
15656;DHT22;7928;43.614;1.456;2023-10-31T07:44:39;11.90;99.90
15656;DHT22;7928;43.614;1.456;2023-10-31T07:47:06;12.00;99.90
15656;DHT22;7928;43.614;1.456;2023-10-31T07:49:35;12.00;99.90
15656;DHT22;7928;43.614;1.456;2023-10-31T07:52:02;12.10;99.90
15656;DHT22;7928;43.614;1.456;2023-10-31T07:54:28;12.10;99.90
15656;DHT22;7928;43.614;1.456;2023-10-31T07:56:55;12.20;99.90
15656;DHT22;7928;43.614;1.456;2023-10-31T07:59:22;12.30;99.90
15656;DHT22;7928;43.614;1.456;2023-10-31T08:01:49;12.30;99.90
15656;DHT22;7928;43.614;1.456;2023-10-31T08:04:17;12.30;99.90
15656;DHT22;7928;43.614;1.456;2023-10-31T08:06:46;12.40;99.90
15656;DHT22;7928;43.614;1.456;2023-10-31T08:09:13;12.70;99.90
15656;DHT22;7928;43.614;1.456;2023-10-31T08:11:41;13.00;99.90
15656;DHT22;7928;43.614;1.456;2023-10-31T08:14:08;13.10;99.90
15656;DHT22;7928;43.614;1.456;2023-10-31T08:16:35;13.10;99.90
15656;DHT22;7928;43.614;1.456;2023-10-31T08:19:02;13.10;99.90
15656;DHT22;7928;43.614;1.456;2023-10-31T08:21:29;13.20;99.90
15656;DHT22;7928;43.614;1.456;2023-10-31T08:24:01;13.30;99.90
15656;DHT22;7928;43.614;1.456;2023-10-31T08:26:30;13.30;99.90
15656;DHT22;7928;43.614;1.456;2023-10-31T08:28:57;13.40;99.90
15656;DHT22;7928;43.614;1.456;2023-10-31T08:31:24;13.40;99.90
15656;DHT22;7928;43.614;1.456;2023-10-31T08:33:51;13.50;99.90
15656;DHT22;7928;43.614;1.456;2023-10-31T08:36:18;13.60;99.90
15656;DHT22;7928;43.614;1.456;2023-10-31T08:38:45;13.70;99.90
15656;DHT22;7928;43.614;1.456;2023-10-31T08:41:13;13.90;99.90
15656;DHT22;7928;43.614;1.456;2023-10-31T08:43:45;14.00;99.90
15656;DHT22;7928;43.614;1.456;2023-10-31T08:46:12;14.00;99.90
15656;DHT22;7928;43.614;1.456;2023-10-31T08:48:39;13.90;99.90
15656;DHT22;7928;43.614;1.456;2023-10-31T08:51:06;14.00;99.90
15656;DHT22;7928;43.614;1.456;2023-10-31T08:53:33;14.10;99.90
15656;DHT22;7928;43.614;1.456;2023-10-31T08:56:00;14.30;99.90
15656;DHT22;7928;43.614;1.456;2023-10-31T08:58:29;14.40;99.90
15656;DHT22;7928;43.614;1.456;2023-10-31T09:00:55;14.50;99.90
15656;DHT22;7928;43.614;1.456;2023-10-31T09:03:22;14.50;99.90
15656;DHT22;7928;43.614;1.456;2023-10-31T09:05:49;14.60;99.90
15656;DHT22;7928;43.614;1.456;2023-10-31T09:08:16;14.70;99.90
15656;DHT22;7928;43.614;1.456;2023-10-31T09:10:44;14.80;99.90
15656;DHT22;7928;43.614;1.456;2023-10-31T09:13:12;15.00;99.90
15656;DHT22;7928;43.614;1.456;2023-10-31T09:15:41;15.40;99.90
15656;DHT22;7928;43.614;1.456;2023-10-31T09:18:08;15.60;99.90
15656;DHT22;7928;43.614;1.456;2023-10-31T09:20:34;15.70;99.90
15656;DHT22;7928;43.614;1.456;2023-10-31T09:23:02;15.90;99.90
15656;DHT22;7928;43.614;1.456;2023-10-31T09:25:28;16.10;99.90
15656;DHT22;7928;43.614;1.456;2023-10-31T09:27:55;16.30;99.90
15656;DHT22;7928;43.614;1.456;2023-10-31T09:30:24;16.70;99.90
15656;DHT22;7928;43.614;1.456;2023-10-31T09:32:53;17.10;99.90
15656;DHT22;7928;43.614;1.456;2023-10-31T09:35:20;18.00;99.90
15656;DHT22;7928;43.614;1.456;2023-10-31T09:37:47;18.30;99.90
15656;DHT22;7928;43.614;1.456;2023-10-31T09:40:15;18.40;99.90
15656;DHT22;7928;43.614;1.456;2023-10-31T09:42:43;18.30;99.90
15656;DHT22;7928;43.614;1.456;2023-10-31T09:45:10;18.80;99.90
15656;DHT22;7928;43.614;1.456;2023-10-31T09:47:38;21.10;99.90
15656;DHT22;7928;43.614;1.456;2023-10-31T09:50:07;23.50;99.90
15656;DHT22;7928;43.614;1.456;2023-10-31T09:52:35;24.90;99.90
15656;DHT22;7928;43.614;1.456;2023-10-31T09:55:03;25.40;99.90
15656;DHT22;7928;43.614;1.456;2023-10-31T09:57:31;23.00;99.90
15656;DHT22;7928;43.614;1.456;2023-10-31T09:59:58;22.20;99.90
15656;DHT22;7928;43.614;1.456;2023-10-31T10:02:25;20.60;99.90
15656;DHT22;7928;43.614;1.456;2023-10-31T10:04:52;19.80;99.90
15656;DHT22;7928;43.614;1.456;2023-10-31T10:07:20;19.40;99.90
15656;DHT22;7928;43.614;1.456;2023-10-31T10:09:47;19.60;99.90
15656;DHT22;7928;43.614;1.456;2023-10-31T10:12:15;20.80;99.90
15656;DHT22;7928;43.614;1.456;2023-10-31T10:14:45;20.70;99.90
15656;DHT22;7928;43.614;1.456;2023-10-31T10:17:16;20.60;99.90
15656;DHT22;7928;43.614;1.456;2023-10-31T10:19:44;20.40;99.90
15656;DHT22;7928;43.614;1.456;2023-10-31T10:22:11;21.70;99.90
15656;DHT22;7928;43.614;1.456;2023-10-31T10:24:44;23.00;99.90
15656;DHT22;7928;43.614;1.456;2023-10-31T10:27:11;23.50;99.90
15656;DHT22;7928;43.614;1.456;2023-10-31T10:29:38;22.80;99.90
15656;DHT22;7928;43.614;1.456;2023-10-31T10:32:07;25.40;99.90
15656;DHT22;7928;43.614;1.456;2023-10-31T10:34:35;28.10;99.90
15656;DHT22;7928;43.614;1.456;2023-10-31T10:37:05;29.00;97.80
15656;DHT22;7928;43.614;1.456;2023-10-31T10:39:33;30.40;93.40
15656;DHT22;7928;43.614;1.456;2023-10-31T10:42:07;31.10;91.50
15656;DHT22;7928;43.614;1.456;2023-10-31T10:44:36;31.10;88.40
15656;DHT22;7928;43.614;1.456;2023-10-31T10:47:06;31.20;86.80
15656;DHT22;7928;43.614;1.456;2023-10-31T10:49:34;31.20;85.60
15656;DHT22;7928;43.614;1.456;2023-10-31T10:52:12;31.20;82.80
15656;DHT22;7928;43.614;1.456;2023-10-31T10:54:45;31.50;82.10
15656;DHT22;7928;43.614;1.456;2023-10-31T10:57:21;31.50;79.40
15656;DHT22;7928;43.614;1.456;2023-10-31T10:59:52;31.30;80.70
15656;DHT22;7928;43.614;1.456;2023-10-31T11:02:23;31.80;79.60
15656;DHT22;7928;43.614;1.456;2023-10-31T11:04:51;31.50;77.00
15656;DHT22;7928;43.614;1.456;2023-10-31T11:07:20;32.10;77.50
15656;DHT22;7928;43.614;1.456;2023-10-31T11:09:49;32.20;75.50
15656;DHT22;7928;43.614;1.456;2023-10-31T11:12:18;31.40;76.10
15656;DHT22;7928;43.614;1.456;2023-10-31T11:14:46;31.00;76.60
15656;DHT22;7928;43.614;1.456;2023-10-31T11:17:33;31.40;77.50
15656;DHT22;7928;43.614;1.456;2023-10-31T11:20:01;31.30;75.00
15656;DHT22;7928;43.614;1.456;2023-10-31T11:22:37;31.80;75.20
15656;DHT22;7928;43.614;1.456;2023-10-31T11:25:06;32.30;73.90
15656;DHT22;7928;43.614;1.456;2023-10-31T11:27:35;31.90;72.80
15656;DHT22;7928;43.614;1.456;2023-10-31T11:30:05;31.90;74.10
15656;DHT22;7928;43.614;1.456;2023-10-31T11:32:33;32.30;72.60
15656;DHT22;7928;43.614;1.456;2023-10-31T11:35:00;32.50;72.70
15656;DHT22;7928;43.614;1.456;2023-10-31T11:37:32;31.80;73.10
15656;DHT22;7928;43.614;1.456;2023-10-31T11:40:16;32.80;72.90
15656;DHT22;7928;43.614;1.456;2023-10-31T11:42:49;33.00;71.90
15656;DHT22;7928;43.614;1.456;2023-10-31T11:45:27;30.80;72.70
15656;DHT22;7928;43.614;1.456;2023-10-31T11:47:54;31.20;75.50
15656;DHT22;7928;43.614;1.456;2023-10-31T11:50:22;32.60;72.40
15656;DHT22;7928;43.614;1.456;2023-10-31T11:53:02;32.60;72.60
15656;DHT22;7928;43.614;1.456;2023-10-31T11:55:30;31.80;71.90
15656;DHT22;7928;43.614;1.456;2023-10-31T11:58:15;30.50;73.20
15656;DHT22;7928;43.614;1.456;2023-10-31T12:00:42;29.70;76.00
15656;DHT22;7928;43.614;1.456;2023-10-31T12:03:10;30.50;73.80
15656;DHT22;7928;43.614;1.456;2023-10-31T12:05:37;30.00;75.60
15656;DHT22;7928;43.614;1.456;2023-10-31T12:08:04;29.00;75.30
15656;DHT22;7928;43.614;1.456;2023-10-31T12:10:31;29.40;74.90
15656;DHT22;7928;43.614;1.456;2023-10-31T12:13:00;30.30;74.90
15656;DHT22;7928;43.614;1.456;2023-10-31T12:17:58;31.10;71.30
15656;DHT22;7928;43.614;1.456;2023-10-31T12:20:25;31.10;72.00
15656;DHT22;7928;43.614;1.456;2023-10-31T12:23:02;31.10;72.80
15656;DHT22;7928;43.614;1.456;2023-10-31T12:28:02;32.40;69.60
15656;DHT22;7928;43.614;1.456;2023-10-31T12:30:28;33.00;70.20
15656;DHT22;7928;43.614;1.456;2023-10-31T12:32:56;32.80;69.20
15656;DHT22;7928;43.614;1.456;2023-10-31T12:35:24;32.70;70.00
15656;DHT22;7928;43.614;1.456;2023-10-31T12:37:52;32.30;68.80
15656;DHT22;7928;43.614;1.456;2023-10-31T12:40:23;32.10;69.40
15656;DHT22;7928;43.614;1.456;2023-10-31T12:42:52;32.60;69.80
15656;DHT22;7928;43.614;1.456;2023-10-31T12:45:21;32.60;69.30
15656;DHT22;7928;43.614;1.456;2023-10-31T12:48:00;32.30;68.80
15656;DHT22;7928;43.614;1.456;2023-10-31T12:50:28;32.00;69.40
15656;DHT22;7928;43.614;1.456;2023-10-31T12:52:55;32.90;70.50
15656;DHT22;7928;43.614;1.456;2023-10-31T12:55:25;33.50;70.10
15656;DHT22;7928;43.614;1.456;2023-10-31T12:57:53;33.50;68.50
15656;DHT22;7928;43.614;1.456;2023-10-31T13:00:22;33.50;68.90
15656;DHT22;7928;43.614;1.456;2023-10-31T13:02:59;33.40;67.50
15656;DHT22;7928;43.614;1.456;2023-10-31T13:05:27;31.10;68.80
15656;DHT22;7928;43.614;1.456;2023-10-31T13:07:55;31.70;69.40
15656;DHT22;7928;43.614;1.456;2023-10-31T13:10:23;31.50;69.70
15656;DHT22;7928;43.614;1.456;2023-10-31T13:12:51;31.90;69.80
15656;DHT22;7928;43.614;1.456;2023-10-31T13:15:21;32.60;68.70
15656;DHT22;7928;43.614;1.456;2023-10-31T13:17:49;33.00;67.50
15656;DHT22;7928;43.614;1.456;2023-10-31T13:20:18;33.30;67.50
15656;DHT22;7928;43.614;1.456;2023-10-31T13:22:45;33.60;68.80
15656;DHT22;7928;43.614;1.456;2023-10-31T13:25:13;34.00;66.50
15656;DHT22;7928;43.614;1.456;2023-10-31T13:27:43;33.50;67.00
15656;DHT22;7928;43.614;1.456;2023-10-31T13:30:11;33.60;66.60
15656;DHT22;7928;43.614;1.456;2023-10-31T13:32:40;32.80;67.30
15656;DHT22;7928;43.614;1.456;2023-10-31T13:35:08;33.30;67.80
15656;DHT22;7928;43.614;1.456;2023-10-31T13:37:35;32.70;68.40
15656;DHT22;7928;43.614;1.456;2023-10-31T13:40:02;33.40;67.90
15656;DHT22;7928;43.614;1.456;2023-10-31T13:42:29;34.70;67.20
15656;DHT22;7928;43.614;1.456;2023-10-31T13:44:56;34.60;65.90
15656;DHT22;7928;43.614;1.456;2023-10-31T13:47:24;35.20;65.20
15656;DHT22;7928;43.614;1.456;2023-10-31T13:49:53;32.90;65.70
15656;DHT22;7928;43.614;1.456;2023-10-31T13:52:20;31.60;69.00
15656;DHT22;7928;43.614;1.456;2023-10-31T13:54:47;32.10;67.60
15656;DHT22;7928;43.614;1.456;2023-10-31T13:57:14;32.10;69.70
15656;DHT22;7928;43.614;1.456;2023-10-31T13:59:41;33.30;67.80
15656;DHT22;7928;43.614;1.456;2023-10-31T14:02:08;33.80;65.90
15656;DHT22;7928;43.614;1.456;2023-10-31T14:04:35;34.30;65.30
15656;DHT22;7928;43.614;1.456;2023-10-31T14:07:04;33.60;66.10
15656;DHT22;7928;43.614;1.456;2023-10-31T14:09:31;32.50;66.80
15656;DHT22;7928;43.614;1.456;2023-10-31T14:11:59;30.20;68.40
15656;DHT22;7928;43.614;1.456;2023-10-31T14:14:26;30.90;69.50
15656;DHT22;7928;43.614;1.456;2023-10-31T14:16:53;31.60;69.40
15656;DHT22;7928;43.614;1.456;2023-10-31T14:19:20;32.80;68.50
15656;DHT22;7928;43.614;1.456;2023-10-31T14:21:47;33.80;65.80
15656;DHT22;7928;43.614;1.456;2023-10-31T14:24:16;34.60;65.80
15656;DHT22;7928;43.614;1.456;2023-10-31T14:26:43;34.40;64.50
15656;DHT22;7928;43.614;1.456;2023-10-31T14:29:10;34.70;64.20
15656;DHT22;7928;43.614;1.456;2023-10-31T14:31:38;34.10;63.00
15656;DHT22;7928;43.614;1.456;2023-10-31T14:34:08;32.90;64.40
15656;DHT22;7928;43.614;1.456;2023-10-31T14:41:33;33.30;65.80
15656;DHT22;7928;43.614;1.456;2023-10-31T14:44:00;33.10;64.30
15656;DHT22;7928;43.614;1.456;2023-10-31T14:46:27;33.70;65.30
15656;DHT22;7928;43.614;1.456;2023-10-31T14:48:54;34.30;64.70
15656;DHT22;7928;43.614;1.456;2023-10-31T14:51:22;35.10;65.20
15656;DHT22;7928;43.614;1.456;2023-10-31T14:53:49;31.50;66.80
15656;DHT22;7928;43.614;1.456;2023-10-31T14:56:16;32.00;68.90
15656;DHT22;7928;43.614;1.456;2023-10-31T14:58:44;33.10;67.10
15656;DHT22;7928;43.614;1.456;2023-10-31T15:01:11;33.30;67.70
15656;DHT22;7928;43.614;1.456;2023-10-31T15:03:39;33.40;67.50
15656;DHT22;7928;43.614;1.456;2023-10-31T15:06:06;33.50;66.40
15656;DHT22;7928;43.614;1.456;2023-10-31T15:08:35;34.00;66.50
15656;DHT22;7928;43.614;1.456;2023-10-31T15:11:02;34.40;65.20
15656;DHT22;7928;43.614;1.456;2023-10-31T15:13:29;34.30;64.90
15656;DHT22;7928;43.614;1.456;2023-10-31T15:15:58;34.20;66.20
15656;DHT22;7928;43.614;1.456;2023-10-31T15:18:25;34.40;65.70
15656;DHT22;7928;43.614;1.456;2023-10-31T15:20:52;34.20;65.20
15656;DHT22;7928;43.614;1.456;2023-10-31T15:23:20;33.30;66.00
15656;DHT22;7928;43.614;1.456;2023-10-31T15:25:48;32.70;67.30
15656;DHT22;7928;43.614;1.456;2023-10-31T15:28:15;31.90;67.40
15656;DHT22;7928;43.614;1.456;2023-10-31T15:30:42;31.20;68.40
15656;DHT22;7928;43.614;1.456;2023-10-31T15:33:10;30.10;69.50
15656;DHT22;7928;43.614;1.456;2023-10-31T15:35:37;28.50;71.90
15656;DHT22;7928;43.614;1.456;2023-10-31T15:38:04;27.70;74.70
15656;DHT22;7928;43.614;1.456;2023-10-31T15:40:31;28.20;75.20
15656;DHT22;7928;43.614;1.456;2023-10-31T15:42:58;28.70;73.10
15656;DHT22;7928;43.614;1.456;2023-10-31T15:45:26;29.00;73.40
15656;DHT22;7928;43.614;1.456;2023-10-31T15:47:53;28.30;73.90
15656;DHT22;7928;43.614;1.456;2023-10-31T15:50:21;28.10;74.60
15656;DHT22;7928;43.614;1.456;2023-10-31T15:52:48;28.00;75.10
15656;DHT22;7928;43.614;1.456;2023-10-31T15:55:15;26.90;76.00
15656;DHT22;7928;43.614;1.456;2023-10-31T15:57:42;25.70;79.20